sensor_id;sensor_type;location;lat;lon;timestamp;pressure;altitude;pressure_sealevel;temperature;humidity
50384;BME280;36301;48.310;12.786;2022-07-06T00:00:06;96623.75;;;15.31;86.86
50384;BME280;36301;48.310;12.786;2022-07-06T00:02:36;96626.81;;;15.26;86.85
50384;BME280;36301;48.310;12.786;2022-07-06T00:05:03;96630.97;;;15.20;85.99
50384;BME280;36301;48.310;12.786;2022-07-06T00:07:29;96624.13;;;15.16;85.84
50384;BME280;36301;48.310;12.786;2022-07-06T00:09:56;96631.28;;;14.94;85.78
50384;BME280;36301;48.310;12.786;2022-07-06T00:12:24;96630.53;;;14.93;84.81
50384;BME280;36301;48.310;12.786;2022-07-06T00:14:50;96624.44;;;14.86;86.36
50384;BME280;36301;48.310;12.786;2022-07-06T00:17:17;96633.53;;;14.85;85.58
50384;BME280;36301;48.310;12.786;2022-07-06T00:19:44;96636.56;;;14.79;85.91
50384;BME280;36301;48.310;12.786;2022-07-06T00:22:10;96630.13;;;14.77;85.92
50384;BME280;36301;48.310;12.786;2022-07-06T00:24:37;96633.53;;;14.70;86.11
50384;BME280;36301;48.310;12.786;2022-07-06T00:27:03;96634.66;;;14.73;85.99
50384;BME280;36301;48.310;12.786;2022-07-06T00:29:30;96638.06;;;14.70;85.96
50384;BME280;36301;48.310;12.786;2022-07-06T00:31:57;96632.75;;;14.66;86.04
50384;BME280;36301;48.310;12.786;2022-07-06T00:34:24;96640.75;;;14.66;86.58
50384;BME280;36301;48.310;12.786;2022-07-06T00:36:51;96633.81;;;14.54;86.76
50384;BME280;36301;48.310;12.786;2022-07-06T00:39:17;96636.50;;;14.51;87.81
50384;BME280;36301;48.310;12.786;2022-07-06T00:41:45;96624.22;;;14.43;88.36
50384;BME280;36301;48.310;12.786;2022-07-06T00:44:12;96618.50;;;14.37;86.67
50384;BME280;36301;48.310;12.786;2022-07-06T00:46:38;96619.66;;;14.43;86.52
50384;BME280;36301;48.310;12.786;2022-07-06T00:49:05;96629.59;;;14.46;85.94
50384;BME280;36301;48.310;12.786;2022-07-06T00:51:35;96623.53;;;14.49;86.05
50384;BME280;36301;48.310;12.786;2022-07-06T00:54:04;96631.53;;;14.53;85.43
50384;BME280;36301;48.310;12.786;2022-07-06T00:56:32;96622.00;;;14.48;86.06
50384;BME280;36301;48.310;12.786;2022-07-06T00:59:02;96618.16;;;14.42;86.67
50384;BME280;36301;48.310;12.786;2022-07-06T01:01:28;96615.84;;;14.37;86.94
50384;BME280;36301;48.310;12.786;2022-07-06T01:03:55;96613.50;;;14.25;86.73
50384;BME280;36301;48.310;12.786;2022-07-06T01:06:22;96616.53;;;14.23;86.98
50384;BME280;36301;48.310;12.786;2022-07-06T01:08:49;96626.47;;;14.30;86.27
50384;BME280;36301;48.310;12.786;2022-07-06T01:11:18;96617.72;;;14.30;86.45
50384;BME280;36301;48.310;12.786;2022-07-06T01:13:47;96618.84;;;14.32;85.54
50384;BME280;36301;48.310;12.786;2022-07-06T01:16:13;96614.63;;;14.24;86.94
50384;BME280;36301;48.310;12.786;2022-07-06T01:18:41;96621.56;;;14.36;86.23
50384;BME280;36301;48.310;12.786;2022-07-06T01:21:14;96615.84;;;14.37;86.21
50384;BME280;36301;48.310;12.786;2022-07-06T01:23:46;96620.00;;;14.31;86.13
50384;BME280;36301;48.310;12.786;2022-07-06T01:26:15;96619.97;;;14.27;86.20
50384;BME280;36301;48.310;12.786;2022-07-06T01:28:42;96621.53;;;14.32;86.32
50384;BME280;36301;48.310;12.786;2022-07-06T01:31:23;96620.38;;;14.30;87.09
50384;BME280;36301;48.310;12.786;2022-07-06T01:33:52;96620.31;;;14.19;87.05
50384;BME280;36301;48.310;12.786;2022-07-06T01:36:19;96615.75;;;14.23;87.36
50384;BME280;36301;48.310;12.786;2022-07-06T01:38:51;96628.69;;;14.21;87.25
50384;BME280;36301;48.310;12.786;2022-07-06T01:41:19;96622.59;;;14.17;87.00
50384;BME280;36301;48.310;12.786;2022-07-06T01:43:46;96613.41;;;14.07;86.75
50384;BME280;36301;48.310;12.786;2022-07-06T01:46:13;96615.69;;;14.05;87.00
50384;BME280;36301;48.310;12.786;2022-07-06T01:48:40;96614.91;;;14.01;87.29
50384;BME280;36301;48.310;12.786;2022-07-06T01:51:08;96613.38;;;14.03;87.55
50384;BME280;36301;48.310;12.786;2022-07-06T01:53:35;96611.09;;;14.02;86.61
50384;BME280;36301;48.310;12.786;2022-07-06T01:56:01;96622.50;;;14.02;87.24
50384;BME280;36301;48.310;12.786;2022-07-06T01:58:28;96623.63;;;14.01;87.38
50384;BME280;36301;48.310;12.786;2022-07-06T02:00:55;96630.09;;;14.00;87.06
50384;BME280;36301;48.310;12.786;2022-07-06T02:03:21;96623.59;;;13.98;86.55
50384;BME280;36301;48.310;12.786;2022-07-06T02:05:48;96630.84;;;13.97;87.31
50384;BME280;36301;48.310;12.786;2022-07-06T02:08:14;96626.34;;;14.05;86.55
50384;BME280;36301;48.310;12.786;2022-07-06T02:10:41;96626.75;;;14.11;86.51
50384;BME280;36301;48.310;12.786;2022-07-06T02:13:07;96619.09;;;14.06;86.25
50384;BME280;36301;48.310;12.786;2022-07-06T02:15:34;96624.00;;;13.96;86.60
50384;BME280;36301;48.310;12.786;2022-07-06T02:18:00;96623.97;;;13.93;86.87
50384;BME280;36301;48.310;12.786;2022-07-06T02:20:27;96639.16;;;13.92;87.67
50384;BME280;36301;48.310;12.786;2022-07-06T02:22:54;96636.94;;;14.01;87.40
50384;BME280;36301;48.310;12.786;2022-07-06T02:25:20;96639.28;;;14.14;86.53
50384;BME280;36301;48.310;12.786;2022-07-06T02:27:46;96629.81;;;14.16;85.96
50384;BME280;36301;48.310;12.786;2022-07-06T02:30:13;96639.38;;;14.28;86.29
50384;BME280;36301;48.310;12.786;2022-07-06T02:32:39;96635.94;;;14.27;86.62
50384;BME280;36301;48.310;12.786;2022-07-06T02:35:06;96645.88;;;14.34;86.67
50384;BME280;36301;48.310;12.786;2022-07-06T02:37:33;96639.81;;;14.37;86.38
50384;BME280;36301;48.310;12.786;2022-07-06T02:39:59;96629.50;;;14.32;86.50
50384;BME280;36301;48.310;12.786;2022-07-06T02:42:26;96645.16;;;14.41;86.84
50384;BME280;36301;48.310;12.786;2022-07-06T02:44:53;96648.22;;;14.43;86.63
50384;BME280;36301;48.310;12.786;2022-07-06T02:47:20;96642.50;;;14.44;86.51
50384;BME280;36301;48.310;12.786;2022-07-06T02:49:47;96653.22;;;14.48;86.72
50384;BME280;36301;48.310;12.786;2022-07-06T02:52:14;96647.13;;;14.47;86.30
50384;BME280;36301;48.310;12.786;2022-07-06T02:54:40;96650.13;;;14.46;87.09
50384;BME280;36301;48.310;12.786;2022-07-06T02:57:07;96649.38;;;14.45;86.91
50384;BME280;36301;48.310;12.786;2022-07-06T02:59:33;96658.09;;;14.42;87.25
50384;BME280;36301;48.310;12.786;2022-07-06T03:02:00;96659.97;;;14.38;87.32
50384;BME280;36301;48.310;12.786;2022-07-06T03:04:26;96658.06;;;14.39;87.72
50384;BME280;36301;48.310;12.786;2022-07-06T03:06:53;96655.38;;;14.32;88.00
50384;BME280;36301;48.310;12.786;2022-07-06T03:09:19;96649.28;;;14.27;87.54
50384;BME280;36301;48.310;12.786;2022-07-06T03:11:46;96659.97;;;14.35;87.41
50384;BME280;36301;48.310;12.786;2022-07-06T03:14:12;96658.03;;;14.28;87.62
50384;BME280;36301;48.310;12.786;2022-07-06T03:16:39;96667.53;;;14.29;88.00
50384;BME280;36301;48.310;12.786;2022-07-06T03:19:06;96658.00;;;14.21;88.38
50384;BME280;36301;48.310;12.786;2022-07-06T03:21:32;96666.78;;;14.25;88.95
50384;BME280;36301;48.310;12.786;2022-07-06T03:23:59;96668.31;;;14.30;88.64
50384;BME280;36301;48.310;12.786;2022-07-06T03:26:25;96659.53;;;14.29;88.75
50384;BME280;36301;48.310;12.786;2022-07-06T03:28:52;96648.06;;;14.18;89.27
50384;BME280;36301;48.310;12.786;2022-07-06T03:31:18;96659.50;;;14.22;89.34
50384;BME280;36301;48.310;12.786;2022-07-06T03:33:45;96658.72;;;14.18;88.97
50384;BME280;36301;48.310;12.786;2022-07-06T03:36:12;96658.72;;;14.18;89.08
50384;BME280;36301;48.310;12.786;2022-07-06T03:38:38;96659.13;;;14.20;88.89
50384;BME280;36301;48.310;12.786;2022-07-06T03:41:05;96664.47;;;14.20;88.54
50384;BME280;36301;48.310;12.786;2022-07-06T03:43:31;96648.84;;;14.15;88.29
50384;BME280;36301;48.310;12.786;2022-07-06T03:45:58;96658.31;;;14.12;88.22
50384;BME280;36301;48.310;12.786;2022-07-06T03:48:24;96663.69;;;14.19;88.50
50384;BME280;36301;48.310;12.786;2022-07-06T03:50:52;96661.78;;;14.23;87.82
50384;BME280;36301;48.310;12.786;2022-07-06T03:53:19;96664.84;;;14.22;87.63
50384;BME280;36301;48.310;12.786;2022-07-06T03:55:45;96667.88;;;14.20;87.05
50384;BME280;36301;48.310;12.786;2022-07-06T03:58:32;96666.41;;;14.30;85.63
50384;BME280;36301;48.310;12.786;2022-07-06T04:00:58;96664.53;;;14.34;84.76
50384;BME280;36301;48.310;12.786;2022-07-06T04:03:25;96661.16;;;14.44;83.89
50384;BME280;36301;48.310;12.786;2022-07-06T04:05:59;96656.56;;;14.38;83.65
50384;BME280;36301;48.310;12.786;2022-07-06T04:08:25;96666.94;;;14.50;83.16
50384;BME280;36301;48.310;12.786;2022-07-06T04:10:52;96656.69;;;14.59;82.61
50384;BME280;36301;48.310;12.786;2022-07-06T04:13:18;96657.84;;;14.62;82.43
50384;BME280;36301;48.310;12.786;2022-07-06T04:15:45;96646.88;;;14.81;81.59
50384;BME280;36301;48.310;12.786;2022-07-06T04:18:11;96655.38;;;15.26;79.49
50384;BME280;36301;48.310;12.786;2022-07-06T04:20:38;96654.66;;;15.90;76.88
50384;BME280;36301;48.310;12.786;2022-07-06T04:23:04;96665.28;;;16.43;74.01
50384;BME280;36301;48.310;12.786;2022-07-06T04:25:31;96656.75;;;16.84;71.77
50384;BME280;36301;48.310;12.786;2022-07-06T04:27:57;96662.28;;;17.22;70.23
50384;BME280;36301;48.310;12.786;2022-07-06T04:30:24;96661.19;;;17.75;67.76
50384;BME280;36301;48.310;12.786;2022-07-06T04:32:50;96668.44;;;18.19;66.36
50384;BME280;36301;48.310;12.786;2022-07-06T04:35:17;96666.31;;;18.41;65.44
50384;BME280;36301;48.310;12.786;2022-07-06T04:37:44;96657.25;;;18.62;64.69
50384;BME280;36301;48.310;12.786;2022-07-06T04:40:13;96666.59;;;19.15;62.67
50384;BME280;36301;48.310;12.786;2022-07-06T04:42:44;96663.22;;;19.38;61.54
50384;BME280;36301;48.310;12.786;2022-07-06T04:45:10;96671.31;;;19.61;61.02
50384;BME280;36301;48.310;12.786;2022-07-06T04:47:37;96671.81;;;19.80;60.56
50384;BME280;36301;48.310;12.786;2022-07-06T04:50:04;96670.94;;;20.10;59.72
50384;BME280;36301;48.310;12.786;2022-07-06T04:52:31;96668.94;;;20.57;57.85
50384;BME280;36301;48.310;12.786;2022-07-06T04:54:58;96667.16;;;20.27;59.31
50384;BME280;36301;48.310;12.786;2022-07-06T04:57:24;96663.03;;;20.42;59.04
50384;BME280;36301;48.310;12.786;2022-07-06T04:59:55;96673.19;;;20.35;58.97
50384;BME280;36301;48.310;12.786;2022-07-06T05:02:22;96672.75;;;20.80;58.63
50384;BME280;36301;48.310;12.786;2022-07-06T05:04:49;96681.59;;;21.16;57.03
50384;BME280;36301;48.310;12.786;2022-07-06T05:07:16;96674.44;;;21.10;56.99
50384;BME280;36301;48.310;12.786;2022-07-06T05:09:42;96682.78;;;21.15;57.52
50384;BME280;36301;48.310;12.786;2022-07-06T05:12:16;96681.63;;;21.85;55.24
50384;BME280;36301;48.310;12.786;2022-07-06T05:14:43;96677.38;;;21.84;54.49
50384;BME280;36301;48.310;12.786;2022-07-06T05:17:09;96685.22;;;22.27;54.15
50384;BME280;36301;48.310;12.786;2022-07-06T05:19:36;96676.84;;;22.67;52.20
50384;BME280;36301;48.310;12.786;2022-07-06T05:22:02;96686.28;;;22.59;52.47
50384;BME280;36301;48.310;12.786;2022-07-06T05:24:29;96682.69;;;23.08;51.21
50384;BME280;36301;48.310;12.786;2022-07-06T05:26:55;96681.16;;;23.19;50.83
50384;BME280;36301;48.310;12.786;2022-07-06T05:29:22;96694.38;;;23.43;50.69
50384;BME280;36301;48.310;12.786;2022-07-06T05:31:48;96690.69;;;23.62;50.33
50384;BME280;36301;48.310;12.786;2022-07-06T05:34:16;96692.03;;;24.52;48.13
50384;BME280;36301;48.310;12.786;2022-07-06T05:36:43;96694.91;;;24.58;47.01
50384;BME280;36301;48.310;12.786;2022-07-06T05:39:10;96700.91;;;24.53;47.52
50384;BME280;36301;48.310;12.786;2022-07-06T05:41:36;96710.81;;;24.34;47.59
50384;BME280;36301;48.310;12.786;2022-07-06T05:44:03;96716.84;;;23.91;47.07
50384;BME280;36301;48.310;12.786;2022-07-06T05:46:30;96704.59;;;24.12;47.01
50384;BME280;36301;48.310;12.786;2022-07-06T05:48:56;96713.06;;;24.70;46.98
50384;BME280;36301;48.310;12.786;2022-07-06T05:51:41;96709.84;;;25.28;45.82
50384;BME280;36301;48.310;12.786;2022-07-06T05:54:08;96720.66;;;25.91;43.62
50384;BME280;36301;48.310;12.786;2022-07-06T05:56:34;96718.53;;;25.54;44.34
50384;BME280;36301;48.310;12.786;2022-07-06T05:59:01;96719.34;;;26.23;43.21
50384;BME280;36301;48.310;12.786;2022-07-06T06:01:27;96720.44;;;26.53;42.72
50384;BME280;36301;48.310;12.786;2022-07-06T06:03:54;96721.28;;;26.13;43.39
50384;BME280;36301;48.310;12.786;2022-07-06T06:06:20;96720.25;;;26.10;43.20
50384;BME280;36301;48.310;12.786;2022-07-06T06:08:47;96718.50;;;25.76;43.14
50384;BME280;36301;48.310;12.786;2022-07-06T06:11:13;96721.78;;;26.21;42.53
50384;BME280;36301;48.310;12.786;2022-07-06T06:13:40;96723.09;;;26.07;42.65
50384;BME280;36301;48.310;12.786;2022-07-06T06:16:06;96718.63;;;26.59;42.45
50384;BME280;36301;48.310;12.786;2022-07-06T06:18:33;96726.94;;;26.46;41.77
50384;BME280;36301;48.310;12.786;2022-07-06T06:21:06;96719.03;;;26.30;42.94
50384;BME280;36301;48.310;12.786;2022-07-06T06:23:33;96728.88;;;26.46;43.14
50384;BME280;36301;48.310;12.786;2022-07-06T06:26:00;96727.03;;;26.33;42.50
50384;BME280;36301;48.310;12.786;2022-07-06T06:28:26;96721.91;;;26.35;42.37
50384;BME280;36301;48.310;12.786;2022-07-06T06:30:53;96726.75;;;26.86;41.42
50384;BME280;36301;48.310;12.786;2022-07-06T06:33:20;96717.06;;;26.30;41.57
50384;BME280;36301;48.310;12.786;2022-07-06T06:35:51;96723.59;;;26.88;40.54
50384;BME280;36301;48.310;12.786;2022-07-06T06:38:19;96735.50;;;27.18;39.99
50384;BME280;36301;48.310;12.786;2022-07-06T06:40:47;96731.13;;;27.02;40.48
50384;BME280;36301;48.310;12.786;2022-07-06T06:43:14;96723.75;;;26.75;40.43
50384;BME280;36301;48.310;12.786;2022-07-06T06:45:40;96740.34;;;26.50;39.76
50384;BME280;36301;48.310;12.786;2022-07-06T06:48:07;96735.81;;;26.65;40.63
50384;BME280;36301;48.310;12.786;2022-07-06T06:50:42;96736.00;;;26.52;40.91
50384;BME280;36301;48.310;12.786;2022-07-06T06:53:08;96734.00;;;26.99;39.41
50384;BME280;36301;48.310;12.786;2022-07-06T06:55:35;96726.19;;;26.73;39.53
50384;BME280;36301;48.310;12.786;2022-07-06T06:58:01;96732.59;;;27.31;38.66
50384;BME280;36301;48.310;12.786;2022-07-06T07:00:28;96736.56;;;26.93;40.49
50384;BME280;36301;48.310;12.786;2022-07-06T07:02:55;96734.75;;;24.92;42.30
50384;BME280;36301;48.310;12.786;2022-07-06T07:05:21;96733.78;;;24.86;43.00
50384;BME280;36301;48.310;12.786;2022-07-06T07:07:48;96732.66;;;25.40;42.62
50384;BME280;36301;48.310;12.786;2022-07-06T07:10:14;96730.38;;;26.37;40.26
50384;BME280;36301;48.310;12.786;2022-07-06T07:12:46;96737.28;;;25.71;42.35
50384;BME280;36301;48.310;12.786;2022-07-06T07:15:13;96735.22;;;24.78;43.50
50384;BME280;36301;48.310;12.786;2022-07-06T07:17:40;96741.50;;;24.05;44.04
50384;BME280;36301;48.310;12.786;2022-07-06T07:20:07;96740.16;;;24.36;45.15
50384;BME280;36301;48.310;12.786;2022-07-06T07:22:34;96745.25;;;24.21;45.66
50384;BME280;36301;48.310;12.786;2022-07-06T07:25:00;96748.63;;;23.61;46.94
50384;BME280;36301;48.310;12.786;2022-07-06T07:27:27;96740.72;;;23.28;47.31
50384;BME280;36301;48.310;12.786;2022-07-06T07:29:54;96738.28;;;23.98;45.56
50384;BME280;36301;48.310;12.786;2022-07-06T07:32:21;96740.44;;;24.50;44.69
50384;BME280;36301;48.310;12.786;2022-07-06T07:34:47;96736.25;;;24.37;46.18
50384;BME280;36301;48.310;12.786;2022-07-06T07:37:14;96742.53;;;24.68;45.04
50384;BME280;36301;48.310;12.786;2022-07-06T07:39:40;96738.28;;;25.95;41.92
50384;BME280;36301;48.310;12.786;2022-07-06T07:42:07;96744.56;;;27.15;41.25
50384;BME280;36301;48.310;12.786;2022-07-06T07:44:36;96735.50;;;26.81;40.09
50384;BME280;36301;48.310;12.786;2022-07-06T07:47:05;96746.97;;;27.04;38.08
50384;BME280;36301;48.310;12.786;2022-07-06T07:49:31;96742.16;;;26.80;38.24
50384;BME280;36301;48.310;12.786;2022-07-06T07:51:58;96748.66;;;26.46;40.06
50384;BME280;36301;48.310;12.786;2022-07-06T07:54:25;96750.09;;;26.29;38.42
50384;BME280;36301;48.310;12.786;2022-07-06T07:56:51;96739.56;;;26.40;38.17
50384;BME280;36301;48.310;12.786;2022-07-06T07:59:18;96746.19;;;27.22;38.59
50384;BME280;36301;48.310;12.786;2022-07-06T08:01:44;96747.88;;;27.71;37.37
50384;BME280;36301;48.310;12.786;2022-07-06T08:04:11;96749.06;;;28.36;37.55
50384;BME280;36301;48.310;12.786;2022-07-06T08:06:38;96751.28;;;27.89;38.26
50384;BME280;36301;48.310;12.786;2022-07-06T08:09:04;96749.09;;;26.54;39.38
50384;BME280;36301;48.310;12.786;2022-07-06T08:11:34;96759.84;;;26.57;39.21
50384;BME280;36301;48.310;12.786;2022-07-06T08:14:01;96743.78;;;26.23;39.10
50384;BME280;36301;48.310;12.786;2022-07-06T08:16:28;96754.56;;;26.72;39.51
50384;BME280;36301;48.310;12.786;2022-07-06T08:18:55;96757.69;;;27.16;38.23
50384;BME280;36301;48.310;12.786;2022-07-06T08:21:22;96746.75;;;27.44;38.33
50384;BME280;36301;48.310;12.786;2022-07-06T08:23:52;96765.31;;;27.46;38.27
50384;BME280;36301;48.310;12.786;2022-07-06T08:26:19;96760.47;;;27.50;39.11
50384;BME280;36301;48.310;12.786;2022-07-06T08:28:46;96762.84;;;27.75;37.60
50384;BME280;36301;48.310;12.786;2022-07-06T08:31:13;96763.13;;;26.89;38.43
50384;BME280;36301;48.310;12.786;2022-07-06T08:33:59;96763.47;;;28.03;37.69
50384;BME280;36301;48.310;12.786;2022-07-06T08:36:26;96760.22;;;27.81;37.67
50384;BME280;36301;48.310;12.786;2022-07-06T08:38:53;96763.66;;;27.90;37.28
50384;BME280;36301;48.310;12.786;2022-07-06T08:41:23;96764.50;;;28.06;36.66
50384;BME280;36301;48.310;12.786;2022-07-06T08:43:52;96761.78;;;26.84;39.28
50384;BME280;36301;48.310;12.786;2022-07-06T08:46:20;96764.03;;;27.13;38.31
50384;BME280;36301;48.310;12.786;2022-07-06T08:48:48;96765.56;;;27.66;39.04
50384;BME280;36301;48.310;12.786;2022-07-06T08:51:15;96767.50;;;28.32;38.38
50384;BME280;36301;48.310;12.786;2022-07-06T08:53:42;96761.47;;;27.28;37.85
50384;BME280;36301;48.310;12.786;2022-07-06T08:56:10;96766.56;;;27.26;37.23
50384;BME280;36301;48.310;12.786;2022-07-06T08:58:37;96764.56;;;26.17;38.58
50384;BME280;36301;48.310;12.786;2022-07-06T09:01:09;96770.72;;;25.68;40.16
50384;BME280;36301;48.310;12.786;2022-07-06T09:03:36;96764.59;;;25.76;41.02
50384;BME280;36301;48.310;12.786;2022-07-06T09:06:04;96769.50;;;26.00;41.04
50384;BME280;36301;48.310;12.786;2022-07-06T09:08:32;96766.78;;;26.00;39.65
50384;BME280;36301;48.310;12.786;2022-07-06T09:10:59;96759.47;;;26.28;37.94
50384;BME280;36301;48.310;12.786;2022-07-06T09:13:25;96772.78;;;25.95;39.55
50384;BME280;36301;48.310;12.786;2022-07-06T09:15:53;96759.97;;;26.54;37.37
50384;BME280;36301;48.310;12.786;2022-07-06T09:18:39;96764.16;;;27.37;39.16
50384;BME280;36301;48.310;12.786;2022-07-06T09:21:06;96763.44;;;27.70;37.99
50384;BME280;36301;48.310;12.786;2022-07-06T09:23:32;96759.81;;;26.85;37.90
50384;BME280;36301;48.310;12.786;2022-07-06T09:26:02;96766.28;;;27.06;36.98
50384;BME280;36301;48.310;12.786;2022-07-06T09:28:45;96760.75;;;26.82;35.66
50384;BME280;36301;48.310;12.786;2022-07-06T09:31:12;96773.47;;;27.46;36.17
50384;BME280;36301;48.310;12.786;2022-07-06T09:36:46;96764.81;;;27.14;37.61
50384;BME280;36301;48.310;12.786;2022-07-06T09:39:26;96767.41;;;27.51;37.09
50384;BME280;36301;48.310;12.786;2022-07-06T09:41:54;96755.13;;;27.74;36.79
50384;BME280;36301;48.310;12.786;2022-07-06T09:44:25;96767.75;;;27.44;37.35
50384;BME280;36301;48.310;12.786;2022-07-06T09:46:55;96759.00;;;27.82;37.55
50384;BME280;36301;48.310;12.786;2022-07-06T09:49:22;96762.75;;;28.17;38.43
50384;BME280;36301;48.310;12.786;2022-07-06T09:51:51;96764.03;;;28.07;37.27
50384;BME280;36301;48.310;12.786;2022-07-06T09:54:18;96764.97;;;28.04;37.29
50384;BME280;36301;48.310;12.786;2022-07-06T09:56:47;96767.81;;;27.67;37.65
50384;BME280;36301;48.310;12.786;2022-07-06T09:59:24;96760.66;;;28.12;36.50
50384;BME280;36301;48.310;12.786;2022-07-06T10:01:53;96764.09;;;27.47;36.27
50384;BME280;36301;48.310;12.786;2022-07-06T10:04:21;96766.41;;;26.29;37.81
50384;BME280;36301;48.310;12.786;2022-07-06T10:06:49;96763.28;;;26.85;38.63
50384;BME280;36301;48.310;12.786;2022-07-06T10:09:15;96758.59;;;26.95;38.90
50384;BME280;36301;48.310;12.786;2022-07-06T10:14:23;96758.44;;;26.99;39.15
50384;BME280;36301;48.310;12.786;2022-07-06T10:16:50;96759.88;;;27.46;38.21
50384;BME280;36301;48.310;12.786;2022-07-06T10:19:20;96760.75;;;27.61;35.68
50384;BME280;36301;48.310;12.786;2022-07-06T10:21:47;96755.59;;;27.63;37.34
50384;BME280;36301;48.310;12.786;2022-07-06T10:24:15;96762.03;;;27.84;36.94
50384;BME280;36301;48.310;12.786;2022-07-06T10:26:45;96764.50;;;28.06;37.28
50384;BME280;36301;48.310;12.786;2022-07-06T10:29:12;96761.94;;;27.69;35.80
50384;BME280;36301;48.310;12.786;2022-07-06T10:31:42;96764.19;;;27.10;35.85
50384;BME280;36301;48.310;12.786;2022-07-06T10:34:12;96767.91;;;26.39;39.36
50384;BME280;36301;48.310;12.786;2022-07-06T10:36:40;96766.31;;;25.92;39.90
50384;BME280;36301;48.310;12.786;2022-07-06T10:39:08;96762.09;;;26.59;40.00
50384;BME280;36301;48.310;12.786;2022-07-06T10:41:55;96753.63;;;26.75;39.24
50384;BME280;36301;48.310;12.786;2022-07-06T10:44:25;96757.56;;;25.88;40.40
50384;BME280;36301;48.310;12.786;2022-07-06T10:46:55;96760.13;;;26.50;39.05
50384;BME280;36301;48.310;12.786;2022-07-06T10:49:23;96769.94;;;26.66;40.34
50384;BME280;36301;48.310;12.786;2022-07-06T10:52:10;96758.47;;;26.71;38.61
50384;BME280;36301;48.310;12.786;2022-07-06T10:54:40;96756.50;;;27.18;38.39
50384;BME280;36301;48.310;12.786;2022-07-06T10:57:09;96753.22;;;27.47;35.98
50384;BME280;36301;48.310;12.786;2022-07-06T10:59:36;96756.66;;;27.14;35.89
50384;BME280;36301;48.310;12.786;2022-07-06T11:02:19;96754.13;;;25.97;38.90
50384;BME280;36301;48.310;12.786;2022-07-06T11:04:48;96759.81;;;25.90;38.95
50384;BME280;36301;48.310;12.786;2022-07-06T11:07:17;96754.47;;;26.17;38.14
50384;BME280;36301;48.310;12.786;2022-07-06T11:09:55;96753.31;;;26.36;38.90
50384;BME280;36301;48.310;12.786;2022-07-06T11:12:21;96754.53;;;26.54;37.14
50384;BME280;36301;48.310;12.786;2022-07-06T11:14:50;96756.69;;;25.69;39.40
50384;BME280;36301;48.310;12.786;2022-07-06T11:17:17;96754.22;;;25.84;39.28
50384;BME280;36301;48.310;12.786;2022-07-06T11:19:56;96745.13;;;26.27;36.59
50384;BME280;36301;48.310;12.786;2022-07-06T11:22:24;96739.00;;;26.73;37.16
50384;BME280;36301;48.310;12.786;2022-07-06T11:24:53;96746.31;;;27.36;36.36
50384;BME280;36301;48.310;12.786;2022-07-06T11:27:22;96740.09;;;27.87;36.82
50384;BME280;36301;48.310;12.786;2022-07-06T11:29:49;96730.53;;;27.92;35.44
50384;BME280;36301;48.310;12.786;2022-07-06T11:32:23;96739.16;;;26.87;36.19
50384;BME280;36301;48.310;12.786;2022-07-06T11:34:50;96737.72;;;26.19;38.05
50384;BME280;36301;48.310;12.786;2022-07-06T11:37:16;96741.56;;;26.49;40.27
50384;BME280;36301;48.310;12.786;2022-07-06T11:39:47;96738.94;;;27.28;38.46
50384;BME280;36301;48.310;12.786;2022-07-06T11:42:16;96745.78;;;27.56;38.43
50384;BME280;36301;48.310;12.786;2022-07-06T11:44:43;96740.97;;;27.51;38.69
50384;BME280;36301;48.310;12.786;2022-07-06T11:47:11;96741.53;;;27.74;38.05
50384;BME280;36301;48.310;12.786;2022-07-06T11:49:39;96739.91;;;27.58;35.64
50384;BME280;36301;48.310;12.786;2022-07-06T11:52:12;96738.53;;;26.74;37.10
50384;BME280;36301;48.310;12.786;2022-07-06T11:54:39;96735.38;;;27.55;36.10
50384;BME280;36301;48.310;12.786;2022-07-06T11:57:11;96739.63;;;27.47;37.25
50384;BME280;36301;48.310;12.786;2022-07-06T11:59:38;96729.19;;;26.66;36.96
50384;BME280;36301;48.310;12.786;2022-07-06T12:02:10;96729.41;;;26.04;38.51
50384;BME280;36301;48.310;12.786;2022-07-06T12:04:39;96723.84;;;25.67;36.93
50384;BME280;36301;48.310;12.786;2022-07-06T12:07:10;96728.19;;;25.24;39.06
50384;BME280;36301;48.310;12.786;2022-07-06T12:09:43;96727.28;;;24.62;41.06
50384;BME280;36301;48.310;12.786;2022-07-06T12:12:11;96728.66;;;24.31;42.79
50384;BME280;36301;48.310;12.786;2022-07-06T12:14:39;96718.47;;;24.92;41.52
50384;BME280;36301;48.310;12.786;2022-07-06T12:17:08;96718.66;;;25.82;39.93
50384;BME280;36301;48.310;12.786;2022-07-06T12:19:36;96709.84;;;26.27;39.91
50384;BME280;36301;48.310;12.786;2022-07-06T12:22:05;96701.72;;;26.46;37.92
50384;BME280;36301;48.310;12.786;2022-07-06T12:24:33;96712.75;;;26.79;38.15
50384;BME280;36301;48.310;12.786;2022-07-06T12:27:10;96713.28;;;26.09;37.85
50384;BME280;36301;48.310;12.786;2022-07-06T12:29:37;96714.06;;;25.29;39.34
50384;BME280;36301;48.310;12.786;2022-07-06T12:32:04;96705.47;;;25.62;39.04
50384;BME280;36301;48.310;12.786;2022-07-06T12:34:32;96701.00;;;25.37;38.99
50384;BME280;36301;48.310;12.786;2022-07-06T12:37:07;96704.50;;;24.94;38.35
50384;BME280;36301;48.310;12.786;2022-07-06T12:39:41;96706.06;;;24.38;39.28
50384;BME280;36301;48.310;12.786;2022-07-06T12:42:08;96698.50;;;24.99;38.65
50384;BME280;36301;48.310;12.786;2022-07-06T12:44:51;96701.34;;;25.48;38.18
50384;BME280;36301;48.310;12.786;2022-07-06T12:47:23;96704.03;;;25.79;38.13
50384;BME280;36301;48.310;12.786;2022-07-06T12:50:05;96694.31;;;25.20;38.92
50384;BME280;36301;48.310;12.786;2022-07-06T12:52:32;96707.84;;;24.54;40.11
50384;BME280;36301;48.310;12.786;2022-07-06T12:55:00;96700.84;;;24.31;39.98
50384;BME280;36301;48.310;12.786;2022-07-06T12:57:49;96705.75;;;24.36;39.41
50384;BME280;36301;48.310;12.786;2022-07-06T13:00:17;96699.13;;;25.03;39.83